sensor_id;sensor_type;location;lat;lon;timestamp;temperature;humidity
6764;DHT22;47432;48.760;9.178;2023-07-09T12:24:30;35.30;39.50
6764;DHT22;47432;48.760;9.178;2023-07-09T12:27:03;35.40;40.90
6764;DHT22;47432;48.760;9.178;2023-07-09T12:29:41;35.40;41.30
6764;DHT22;47432;48.760;9.178;2023-07-09T12:32:18;35.60;38.80
6764;DHT22;47432;48.760;9.178;2023-07-09T12:34:53;35.70;40.50
6764;DHT22;47432;48.760;9.178;2023-07-09T12:37:21;35.90;38.20
6764;DHT22;47432;48.760;9.178;2023-07-09T12:39:51;35.90;38.30
6764;DHT22;47432;48.760;9.178;2023-07-09T12:42:21;36.00;38.30
6764;DHT22;47432;48.760;9.178;2023-07-09T12:44:58;36.20;38.50
6764;DHT22;47432;48.760;9.178;2023-07-09T12:47:25;36.40;37.00
6764;DHT22;47432;48.760;9.178;2023-07-09T12:50:09;36.60;39.10
6764;DHT22;47432;48.760;9.178;2023-07-09T12:52:48;36.60;36.70
6764;DHT22;47432;48.760;9.178;2023-07-09T12:55:28;36.70;37.30
6764;DHT22;47432;48.760;9.178;2023-07-09T12:58:00;36.60;37.30
6764;DHT22;47432;48.760;9.178;2023-07-09T13:00:30;36.70;40.00
6764;DHT22;47432;48.760;9.178;2023-07-09T13:03:02;36.60;40.60
6764;DHT22;47432;48.760;9.178;2023-07-09T13:05:28;36.80;40.10
6764;DHT22;47432;48.760;9.178;2023-07-09T13:08:01;36.80;37.90
6764;DHT22;47432;48.760;9.178;2023-07-09T13:10:30;36.90;37.50
6764;DHT22;47432;48.760;9.178;2023-07-09T13:13:01;37.10;36.30
6764;DHT22;47432;48.760;9.178;2023-07-09T13:15:40;37.20;38.00
6764;DHT22;47432;48.760;9.178;2023-07-09T13:18:10;37.40;34.40
6764;DHT22;47432;48.760;9.178;2023-07-09T13:20:42;37.40;34.00
6764;DHT22;47432;48.760;9.178;2023-07-09T13:23:18;37.50;34.40
6764;DHT22;47432;48.760;9.178;2023-07-09T13:25:46;37.60;36.40
6764;DHT22;47432;48.760;9.178;2023-07-09T13:28:24;37.60;33.30
6764;DHT22;47432;48.760;9.178;2023-07-09T13:30:59;37.60;33.50
6764;DHT22;47432;48.760;9.178;2023-07-09T13:33:26;37.80;34.70
6764;DHT22;47432;48.760;9.178;2023-07-09T13:35:53;38.10;33.90
6764;DHT22;47432;48.760;9.178;2023-07-09T13:38:22;38.20;34.10
6764;DHT22;47432;48.760;9.178;2023-07-09T13:40:51;38.60;35.50
6764;DHT22;47432;48.760;9.178;2023-07-09T13:43:30;39.70;32.60
6764;DHT22;47432;48.760;9.178;2023-07-09T13:45:58;39.70;33.70
6764;DHT22;47432;48.760;9.178;2023-07-09T13:48:26;40.30;32.50
6764;DHT22;47432;48.760;9.178;2023-07-09T13:50:55;41.20;32.20
6764;DHT22;47432;48.760;9.178;2023-07-09T13:53:27;41.30;32.70
6764;DHT22;47432;48.760;9.178;2023-07-09T13:55:55;41.90;32.00
6764;DHT22;47432;48.760;9.178;2023-07-09T13:58:23;42.60;30.20
6764;DHT22;47432;48.760;9.178;2023-07-09T14:00:55;43.20;29.90
6764;DHT22;47432;48.760;9.178;2023-07-09T14:03:28;44.90;28.20
6764;DHT22;47432;48.760;9.178;2023-07-09T14:05:54;44.90;28.80
6764;DHT22;47432;48.760;9.178;2023-07-09T14:08:20;45.20;25.30
6764;DHT22;47432;48.760;9.178;2023-07-09T14:10:47;45.30;25.80
6764;DHT22;47432;48.760;9.178;2023-07-09T14:13:16;44.80;25.60
6764;DHT22;47432;48.760;9.178;2023-07-09T14:15:43;43.90;25.80
6764;DHT22;47432;48.760;9.178;2023-07-09T14:18:13;43.70;25.20
6764;DHT22;47432;48.760;9.178;2023-07-09T14:20:40;43.70;25.70
6764;DHT22;47432;48.760;9.178;2023-07-09T14:23:11;44.40;25.70
6764;DHT22;47432;48.760;9.178;2023-07-09T14:25:40;44.60;24.30
6764;DHT22;47432;48.760;9.178;2023-07-09T14:28:24;44.90;25.10
6764;DHT22;47432;48.760;9.178;2023-07-09T14:30:50;44.90;25.10
6764;DHT22;47432;48.760;9.178;2023-07-09T14:33:20;44.80;24.40
6764;DHT22;47432;48.760;9.178;2023-07-09T14:35:47;45.10;24.90
6764;DHT22;47432;48.760;9.178;2023-07-09T14:38:22;45.20;24.70
6764;DHT22;47432;48.760;9.178;2023-07-09T14:40:51;45.90;23.30
6764;DHT22;47432;48.760;9.178;2023-07-09T14:43:23;45.90;23.70
6764;DHT22;47432;48.760;9.178;2023-07-09T14:45:49;46.40;23.20
6764;DHT22;47432;48.760;9.178;2023-07-09T14:48:20;46.90;22.40
6764;DHT22;47432;48.760;9.178;2023-07-09T14:50:48;47.40;22.50
6764;DHT22;47432;48.760;9.178;2023-07-09T14:53:25;48.30;21.30
6764;DHT22;47432;48.760;9.178;2023-07-09T14:55:53;48.80;20.30
6764;DHT22;47432;48.760;9.178;2023-07-09T14:58:21;49.00;20.00
6764;DHT22;47432;48.760;9.178;2023-07-09T15:00:48;49.40;19.90
6764;DHT22;47432;48.760;9.178;2023-07-09T15:03:20;49.80;19.70
6764;DHT22;47432;48.760;9.178;2023-07-09T15:05:48;50.30;19.10
6764;DHT22;47432;48.760;9.178;2023-07-09T15:08:20;50.30;17.80
6764;DHT22;47432;48.760;9.178;2023-07-09T15:10:48;51.20;18.10
6764;DHT22;47432;48.760;9.178;2023-07-09T15:13:29;51.60;17.50
6764;DHT22;47432;48.760;9.178;2023-07-09T15:15:57;52.10;16.90
6764;DHT22;47432;48.760;9.178;2023-07-09T15:18:24;52.40;16.60
6764;DHT22;47432;48.760;9.178;2023-07-09T15:20:53;52.70;15.80
6764;DHT22;47432;48.760;9.178;2023-07-09T15:23:21;52.90;15.90
6764;DHT22;47432;48.760;9.178;2023-07-09T15:25:48;53.00;15.80
6764;DHT22;47432;48.760;9.178;2023-07-09T15:28:17;52.50;16.00
6764;DHT22;47432;48.760;9.178;2023-07-09T15:30:43;51.20;14.70
6764;DHT22;47432;48.760;9.178;2023-07-09T15:33:14;50.40;14.30
6764;DHT22;47432;48.760;9.178;2023-07-09T15:35:43;50.30;14.80
6764;DHT22;47432;48.760;9.178;2023-07-09T15:38:29;49.20;15.60
6764;DHT22;47432;48.760;9.178;2023-07-09T15:40:57;47.60;15.60
6764;DHT22;47432;48.760;9.178;2023-07-09T15:43:24;46.70;15.90
6764;DHT22;47432;48.760;9.178;2023-07-09T15:45:52;46.10;16.20
6764;DHT22;47432;48.760;9.178;2023-07-09T15:48:25;45.60;16.50
6764;DHT22;47432;48.760;9.178;2023-07-09T15:50:53;45.20;16.60
6764;DHT22;47432;48.760;9.178;2023-07-09T15:53:20;43.70;17.30
6764;DHT22;47432;48.760;9.178;2023-07-09T15:55:46;43.20;17.40
6764;DHT22;47432;48.760;9.178;2023-07-09T15:58:19;43.30;18.20
6764;DHT22;47432;48.760;9.178;2023-07-09T16:00:49;43.50;19.40
6764;DHT22;47432;48.760;9.178;2023-07-09T16:05:41;43.70;17.90
6764;DHT22;47432;48.760;9.178;2023-07-09T16:10:35;43.60;18.40
6764;DHT22;47432;48.760;9.178;2023-07-09T16:13:01;43.00;18.00
6764;DHT22;47432;48.760;9.178;2023-07-09T16:15:27;42.70;19.80
6764;DHT22;47432;48.760;9.178;2023-07-09T16:17:56;42.40;18.70
6764;DHT22;47432;48.760;9.178;2023-07-09T16:20:27;42.00;20.70
6764;DHT22;47432;48.760;9.178;2023-07-09T16:22:55;41.70;20.60
6764;DHT22;47432;48.760;9.178;2023-07-09T16:25:28;41.40;21.80
6764;DHT22;47432;48.760;9.178;2023-07-09T16:27:56;41.20;22.50
6764;DHT22;47432;48.760;9.178;2023-07-09T16:30:24;40.80;22.90
6764;DHT22;47432;48.760;9.178;2023-07-09T16:32:51;40.60;25.30
6764;DHT22;47432;48.760;9.178;2023-07-09T16:35:19;40.30;24.70
6764;DHT22;47432;48.760;9.178;2023-07-09T16:37:47;39.80;25.30
6764;DHT22;47432;48.760;9.178;2023-07-09T16:40:16;39.50;26.20
6764;DHT22;47432;48.760;9.178;2023-07-09T16:42:45;39.20;26.40
6764;DHT22;47432;48.760;9.178;2023-07-09T16:45:13;38.60;26.30
6764;DHT22;47432;48.760;9.178;2023-07-09T16:47:41;38.40;27.10
6764;DHT22;47432;48.760;9.178;2023-07-09T16:50:22;38.20;28.00
6764;DHT22;47432;48.760;9.178;2023-07-09T16:52:52;38.00;29.00
6764;DHT22;47432;48.760;9.178;2023-07-09T16:55:26;37.80;29.50
6764;DHT22;47432;48.760;9.178;2023-07-09T16:57:56;37.60;30.00
6764;DHT22;47432;48.760;9.178;2023-07-09T17:00:29;37.30;31.00
6764;DHT22;47432;48.760;9.178;2023-07-09T17:02:58;37.20;31.90
6764;DHT22;47432;48.760;9.178;2023-07-09T17:05:26;37.00;32.70
6764;DHT22;47432;48.760;9.178;2023-07-09T17:10:18;36.70;33.60
6764;DHT22;47432;48.760;9.178;2023-07-09T17:12:45;36.60;33.50
6764;DHT22;47432;48.760;9.178;2023-07-09T17:17:56;36.50;34.80
6764;DHT22;47432;48.760;9.178;2023-07-09T17:20:24;36.70;35.80
6764;DHT22;47432;48.760;9.178;2023-07-09T17:22:54;36.80;36.20
6764;DHT22;47432;48.760;9.178;2023-07-09T17:27:55;40.30;29.90
6764;DHT22;47432;48.760;9.178;2023-07-09T17:30:24;40.50;31.00
6764;DHT22;47432;48.760;9.178;2023-07-09T17:32:50;42.00;26.60
6764;DHT22;47432;48.760;9.178;2023-07-09T17:35:16;43.50;25.10
6764;DHT22;47432;48.760;9.178;2023-07-09T17:37:49;45.20;21.20
6764;DHT22;47432;48.760;9.178;2023-07-09T17:40:31;45.30;21.90
6764;DHT22;47432;48.760;9.178;2023-07-09T17:42:57;45.60;23.10
6764;DHT22;47432;48.760;9.178;2023-07-09T17:45:24;45.60;22.40
6764;DHT22;47432;48.760;9.178;2023-07-09T17:47:51;45.40;22.80
6764;DHT22;47432;48.760;9.178;2023-07-09T17:50:23;44.80;23.10
6764;DHT22;47432;48.760;9.178;2023-07-09T17:52:54;44.80;23.30
6764;DHT22;47432;48.760;9.178;2023-07-09T17:55:21;44.20;23.80
6764;DHT22;47432;48.760;9.178;2023-07-09T17:57:52;42.70;25.00
6764;DHT22;47432;48.760;9.178;2023-07-09T18:00:27;42.20;26.00
6764;DHT22;47432;48.760;9.178;2023-07-09T18:03:05;41.80;26.60
6764;DHT22;47432;48.760;9.178;2023-07-09T18:05:33;41.70;26.70
6764;DHT22;47432;48.760;9.178;2023-07-09T18:07:59;41.50;27.20
6764;DHT22;47432;48.760;9.178;2023-07-09T18:10:31;41.60;27.60
6764;DHT22;47432;48.760;9.178;2023-07-09T18:13:04;40.60;27.10
6764;DHT22;47432;48.760;9.178;2023-07-09T18:15:33;40.10;27.50
6764;DHT22;47432;48.760;9.178;2023-07-09T18:17:59;39.60;27.70
6764;DHT22;47432;48.760;9.178;2023-07-09T18:22:52;38.60;28.20
6764;DHT22;47432;48.760;9.178;2023-07-09T18:25:21;38.10;28.20
6764;DHT22;47432;48.760;9.178;2023-07-09T18:27:51;37.80;28.50
6764;DHT22;47432;48.760;9.178;2023-07-09T18:30:21;37.60;29.10
6764;DHT22;47432;48.760;9.178;2023-07-09T18:32:48;37.50;29.10
6764;DHT22;47432;48.760;9.178;2023-07-09T18:37:56;37.30;29.00
6764;DHT22;47432;48.760;9.178;2023-07-09T18:40:31;37.00;28.70
6764;DHT22;47432;48.760;9.178;2023-07-09T18:42:59;36.70;29.30
6764;DHT22;47432;48.760;9.178;2023-07-09T18:45:28;36.30;29.60
6764;DHT22;47432;48.760;9.178;2023-07-09T18:47:54;35.90;30.20
6764;DHT22;47432;48.760;9.178;2023-07-09T18:50:27;35.50;30.20
6764;DHT22;47432;48.760;9.178;2023-07-09T18:52:56;35.00;31.20
6764;DHT22;47432;48.760;9.178;2023-07-09T18:55:28;34.50;31.50
6764;DHT22;47432;48.760;9.178;2023-07-09T18:57:55;34.10;31.50
6764;DHT22;47432;48.760;9.178;2023-07-09T19:00:23;33.70;32.40
6764;DHT22;47432;48.760;9.178;2023-07-09T19:02:51;33.30;34.20
6764;DHT22;47432;48.760;9.178;2023-07-09T19:05:26;33.00;34.30
6764;DHT22;47432;48.760;9.178;2023-07-09T19:07:54;32.70;35.00
6764;DHT22;47432;48.760;9.178;2023-07-09T19:10:25;32.40;34.80
6764;DHT22;47432;48.760;9.178;2023-07-09T19:12:57;32.00;35.10
6764;DHT22;47432;48.760;9.178;2023-07-09T19:15:29;31.80;35.50
6764;DHT22;47432;48.760;9.178;2023-07-09T19:20:24;31.20;38.00
6764;DHT22;47432;48.760;9.178;2023-07-09T19:22:51;30.90;38.10
6764;DHT22;47432;48.760;9.178;2023-07-09T19:27:49;30.30;39.10
6764;DHT22;47432;48.760;9.178;2023-07-09T19:30:17;30.00;39.50
6764;DHT22;47432;48.760;9.178;2023-07-09T19:32:47;29.80;40.10
6764;DHT22;47432;48.760;9.178;2023-07-09T19:35:19;29.60;41.50
6764;DHT22;47432;48.760;9.178;2023-07-09T19:37:45;29.40;42.10
6764;DHT22;47432;48.760;9.178;2023-07-09T19:40:26;29.10;43.00
6764;DHT22;47432;48.760;9.178;2023-07-09T19:42:54;29.00;43.00
6764;DHT22;47432;48.760;9.178;2023-07-09T19:45:34;28.80;43.50
6764;DHT22;47432;48.760;9.178;2023-07-09T19:50:33;28.50;45.20
6764;DHT22;47432;48.760;9.178;2023-07-09T19:53:01;28.40;45.70
6764;DHT22;47432;48.760;9.178;2023-07-09T19:58:12;28.10;48.10
6764;DHT22;47432;48.760;9.178;2023-07-09T20:00:37;27.90;48.70
6764;DHT22;47432;48.760;9.178;2023-07-09T20:03:03;27.70;48.40
6764;DHT22;47432;48.760;9.178;2023-07-09T20:05:34;27.60;49.20
6764;DHT22;47432;48.760;9.178;2023-07-09T20:08:01;27.50;49.60
6764;DHT22;47432;48.760;9.178;2023-07-09T20:10:44;27.40;50.20
6764;DHT22;47432;48.760;9.178;2023-07-09T20:13:17;27.30;51.60
6764;DHT22;47432;48.760;9.178;2023-07-09T20:15:46;27.10;51.40
6764;DHT22;47432;48.760;9.178;2023-07-09T20:18:17;27.00;51.90
6764;DHT22;47432;48.760;9.178;2023-07-09T20:21:00;27.00;52.60
6764;DHT22;47432;48.760;9.178;2023-07-09T20:23:29;26.90;53.30
6764;DHT22;47432;48.760;9.178;2023-07-09T20:28:26;26.80;53.60
6764;DHT22;47432;48.760;9.178;2023-07-09T20:33:21;26.60;54.10
6764;DHT22;47432;48.760;9.178;2023-07-09T20:35:49;26.60;54.30
6764;DHT22;47432;48.760;9.178;2023-07-09T20:38:18;26.50;56.20
6764;DHT22;47432;48.760;9.178;2023-07-09T20:43:34;26.30;57.40
6764;DHT22;47432;48.760;9.178;2023-07-09T20:46:03;26.20;57.60
6764;DHT22;47432;48.760;9.178;2023-07-09T20:48:29;26.10;58.90
6764;DHT22;47432;48.760;9.178;2023-07-09T20:55:51;26.00;60.20
6764;DHT22;47432;48.760;9.178;2023-07-09T20:58:21;25.90;61.10
6764;DHT22;47432;48.760;9.178;2023-07-09T21:00:48;25.90;61.70
6764;DHT22;47432;48.760;9.178;2023-07-09T21:03:20;25.90;62.30
6764;DHT22;47432;48.760;9.178;2023-07-09T21:08:18;25.70;63.40
6764;DHT22;47432;48.760;9.178;2023-07-09T21:13:24;25.70;63.20
6764;DHT22;47432;48.760;9.178;2023-07-09T21:15:52;25.70;63.80
6764;DHT22;47432;48.760;9.178;2023-07-09T21:18:21;25.70;64.00
6764;DHT22;47432;48.760;9.178;2023-07-09T21:20:57;25.70;64.20
6764;DHT22;47432;48.760;9.178;2023-07-09T21:23:23;25.70;64.40
6764;DHT22;47432;48.760;9.178;2023-07-09T21:25:50;25.70;64.30
6764;DHT22;47432;48.760;9.178;2023-07-09T21:30:42;25.60;65.30
6764;DHT22;47432;48.760;9.178;2023-07-09T21:33:14;25.50;65.80
6764;DHT22;47432;48.760;9.178;2023-07-09T21:35:44;25.60;66.60
6764;DHT22;47432;48.760;9.178;2023-07-09T21:38:23;25.60;66.40
6764;DHT22;47432;48.760;9.178;2023-07-09T21:40:51;25.60;66.30
6764;DHT22;47432;48.760;9.178;2023-07-09T21:45:44;25.50;66.70
6764;DHT22;47432;48.760;9.178;2023-07-09T21:48:16;25.60;67.00
6764;DHT22;47432;48.760;9.178;2023-07-09T21:50:47;25.50;66.80
6764;DHT22;47432;48.760;9.178;2023-07-09T21:55:45;25.50;66.90
6764;DHT22;47432;48.760;9.178;2023-07-09T22:00:38;25.50;66.60
6764;DHT22;47432;48.760;9.178;2023-07-09T22:05:31;25.40;67.40
6764;DHT22;47432;48.760;9.178;2023-07-09T22:07:58;25.50;67.00
6764;DHT22;47432;48.760;9.178;2023-07-09T22:10:32;25.50;67.80
6764;DHT22;47432;48.760;9.178;2023-07-09T22:13:00;25.50;67.60
6764;DHT22;47432;48.760;9.178;2023-07-09T22:15:32;25.50;67.70
6764;DHT22;47432;48.760;9.178;2023-07-09T22:18:00;25.50;67.60
6764;DHT22;47432;48.760;9.178;2023-07-09T22:22:59;25.60;68.40
6764;DHT22;47432;48.760;9.178;2023-07-09T22:25:29;25.50;68.20
6764;DHT22;47432;48.760;9.178;2023-07-09T22:30:26;25.50;67.40
6764;DHT22;47432;48.760;9.178;2023-07-09T22:32:54;25.60;67.70
6764;DHT22;47432;48.760;9.178;2023-07-09T22:35:28;25.60;67.60
6764;DHT22;47432;48.760;9.178;2023-07-09T22:37:56;25.60;67.00
6764;DHT22;47432;48.760;9.178;2023-07-09T22:40:25;25.60;67.60
6764;DHT22;47432;48.760;9.178;2023-07-09T22:42:55;25.70;67.00
6764;DHT22;47432;48.760;9.178;2023-07-09T22:45:27;25.70;67.60
6764;DHT22;47432;48.760;9.178;2023-07-09T22:47:59;25.70;68.60
6764;DHT22;47432;48.760;9.178;2023-07-09T22:50:34;25.60;69.00
6764;DHT22;47432;48.760;9.178;2023-07-09T22:53:08;25.60;69.50
6764;DHT22;47432;48.760;9.178;2023-07-09T22:55:39;25.50;69.10
6764;DHT22;47432;48.760;9.178;2023-07-09T22:58:08;25.50;68.40
6764;DHT22;47432;48.760;9.178;2023-07-09T23:00:51;25.40;69.40
6764;DHT22;47432;48.760;9.178;2023-07-09T23:03:21;25.40;70.50
6764;DHT22;47432;48.760;9.178;2023-07-09T23:06:15;25.30;70.80
6764;DHT22;47432;48.760;9.178;2023-07-09T23:08:49;25.30;70.60
6764;DHT22;47432;48.760;9.178;2023-07-09T23:11:37;25.30;70.50
6764;DHT22;47432;48.760;9.178;2023-07-09T23:14:17;25.30;71.50
6764;DHT22;47432;48.760;9.178;2023-07-09T23:16:47;25.20;71.90
6764;DHT22;47432;48.760;9.178;2023-07-09T23:19:22;25.20;72.90
6764;DHT22;47432;48.760;9.178;2023-07-09T23:21:50;25.20;73.10
6764;DHT22;47432;48.760;9.178;2023-07-09T23:24:16;25.00;73.80
6764;DHT22;47432;48.760;9.178;2023-07-09T23:26:51;25.00;74.30
6764;DHT22;47432;48.760;9.178;2023-07-09T23:29:18;24.90;74.50
6764;DHT22;47432;48.760;9.178;2023-07-09T23:31:47;24.80;75.30
6764;DHT22;47432;48.760;9.178;2023-07-09T23:34:16;24.80;76.10
6764;DHT22;47432;48.760;9.178;2023-07-09T23:36:45;24.60;76.80
6764;DHT22;47432;48.760;9.178;2023-07-09T23:39:14;24.60;77.10
6764;DHT22;47432;48.760;9.178;2023-07-09T23:41:43;24.60;77.40
6764;DHT22;47432;48.760;9.178;2023-07-09T23:44:22;24.50;76.60
6764;DHT22;47432;48.760;9.178;2023-07-09T23:46:50;24.50;76.70
6764;DHT22;47432;48.760;9.178;2023-07-09T23:49:28;24.40;77.40
6764;DHT22;47432;48.760;9.178;2023-07-09T23:51:56;24.40;76.80
6764;DHT22;47432;48.760;9.178;2023-07-09T23:54:22;24.40;77.00
6764;DHT22;47432;48.760;9.178;2023-07-09T23:56:51;24.40;76.50
6764;DHT22;47432;48.760;9.178;2023-07-09T23:59:20;24.40;75.20
